createdAt,value
2019-02-24T00:00:28.580Z,56.47
2019-02-24T00:01:28.586Z,56.81
2019-02-24T00:02:28.573Z,59.02
2019-02-24T00:03:28.556Z,61.52
2019-02-24T00:04:28.510Z,61.97
2019-02-24T00:05:28.510Z,61.69
2019-02-24T00:06:28.489Z,61.47
2019-02-24T00:07:28.497Z,64.12
2019-02-24T00:08:28.485Z,65.68
2019-02-24T00:09:28.450Z,65.40
2019-02-24T00:10:28.469Z,65.19
2019-02-24T00:11:28.437Z,65.61
2019-02-24T00:12:28.434Z,64.49
2019-02-24T00:13:28.450Z,64.10
2019-02-24T00:14:28.408Z,65.67
2019-02-24T00:15:28.395Z,66.33
2019-02-24T00:16:29.278Z,68.00
2019-02-24T00:17:28.455Z,65.88
2019-02-24T00:18:28.368Z,64.04
2019-02-24T00:19:28.348Z,63.07
2019-02-24T00:20:28.346Z,63.56
2019-02-24T00:21:28.373Z,63.70
2019-02-24T00:22:28.343Z,64.53
2019-02-24T00:23:28.331Z,65.58
2019-02-24T00:24:28.316Z,65.30
2019-02-24T00:25:28.316Z,65.01
2019-02-24T00:26:28.325Z,66.19
2019-02-24T00:27:28.293Z,66.30
2019-02-24T00:28:28.271Z,67.31
2019-02-24T00:29:28.256Z,64.90
2019-02-24T00:30:28.256Z,64.25
2019-02-24T00:31:28.244Z,62.94
2019-02-24T00:32:28.232Z,66.07
2019-02-24T00:33:28.236Z,64.74
2019-02-24T00:34:28.194Z,62.41
2019-02-24T00:35:28.205Z,64.43
2019-02-24T00:36:28.177Z,66.00
2019-02-24T00:37:28.166Z,66.13
2019-02-24T00:38:28.186Z,65.92
2019-02-24T00:39:28.189Z,64.22
2019-02-24T00:40:28.153Z,64.01
2019-02-24T00:41:28.119Z,64.32
2019-02-24T00:42:28.131Z,63.67
2019-02-24T00:43:28.119Z,63.78
2019-02-24T00:44:28.090Z,64.84
2019-02-24T00:45:28.097Z,64.32
2019-02-24T00:46:28.082Z,65.78
2019-02-24T00:47:28.095Z,66.75
2019-02-24T00:48:28.100Z,66.03
2019-02-24T00:49:28.040Z,64.74
2019-02-24T00:50:28.026Z,63.28
2019-02-24T00:51:28.032Z,62.21
2019-02-24T00:52:28.070Z,60.10
2019-02-24T00:53:28.066Z,62.39
2019-02-24T00:54:27.999Z,62.49
2019-02-24T00:55:27.995Z,62.52
2019-02-24T00:56:28.003Z,62.21
2019-02-24T00:57:27.960Z,63.04
2019-02-24T00:58:27.998Z,63.78
2019-02-24T00:59:27.934Z,62.94
2019-02-24T01:00:27.916Z,63.83
2019-02-24T01:01:27.929Z,65.01
2019-02-24T01:02:28.007Z,66.16
2019-02-24T01:03:27.900Z,66.19
2019-02-24T01:04:27.879Z,66.82
2019-02-24T01:05:27.870Z,66.43
2019-02-24T01:06:27.856Z,67.93
2019-02-24T01:07:27.880Z,68.79
2019-02-24T01:08:27.860Z,68.48
2019-02-24T01:09:27.867Z,69.98
2019-02-24T01:10:27.820Z,70.61
2019-02-24T01:11:27.845Z,71.89
2019-02-24T01:12:27.796Z,71.26
2019-02-24T01:13:27.818Z,71.48
2019-02-24T01:14:27.791Z,71.48
2019-02-24T01:15:27.788Z,72.11
2019-02-24T01:16:27.765Z,74.30
2019-02-24T01:17:27.765Z,73.50
2019-02-24T01:18:27.771Z,73.89
2019-02-24T01:19:27.731Z,74.34
2019-02-24T01:20:27.726Z,72.94
2019-02-24T01:21:27.710Z,73.57
2019-02-24T01:22:27.719Z,74.62
2019-02-24T01:23:27.731Z,73.68
2019-02-24T01:24:27.695Z,74.10
2019-02-24T01:25:27.672Z,74.30
2019-02-24T01:26:27.665Z,74.10
2019-02-24T01:27:27.671Z,74.24
2019-02-24T01:28:27.632Z,74.13
2019-02-24T01:29:27.648Z,72.14
2019-02-24T01:30:27.636Z,74.13
2019-02-24T01:31:27.615Z,72.77
2019-02-24T01:32:27.638Z,71.93
2019-02-24T01:33:27.635Z,71.72
2019-02-24T01:34:27.606Z,71.51
2019-02-24T01:35:27.563Z,71.26
2019-02-24T01:36:27.598Z,68.03
2019-02-24T01:37:27.533Z,66.08
2019-02-24T01:38:27.520Z,65.09
2019-02-24T01:39:27.563Z,64.14
2019-02-24T01:40:27.509Z,64.74
2019-02-24T01:41:27.534Z,64.87
2019-02-24T01:42:27.487Z,64.59
2019-02-24T01:43:27.485Z,65.43
2019-02-24T01:44:27.519Z,65.88
2019-02-24T01:45:27.450Z,65.98
2019-02-24T01:46:27.450Z,66.50
2019-02-24T01:47:27.455Z,66.43
2019-02-24T01:48:27.447Z,66.85
2019-02-24T01:49:27.431Z,67.90
2019-02-24T01:50:27.407Z,68.73
2019-02-24T01:51:27.421Z,68.66
2019-02-24T01:52:27.408Z,67.96
2019-02-24T01:53:27.364Z,69.21
2019-02-24T01:54:27.408Z,70.81
2019-02-24T01:55:27.361Z,71.03
2019-02-24T01:56:27.385Z,72.39
2019-02-24T01:57:27.329Z,72.42
2019-02-24T01:58:34.893Z,71.41
2019-02-24T01:59:28.327Z,72.42
2019-02-24T02:00:27.315Z,72.87
2019-02-24T02:01:27.297Z,72.03
2019-02-24T02:02:27.307Z,71.51
2019-02-24T02:03:27.267Z,72.14
2019-02-24T02:04:27.314Z,73.43
2019-02-24T02:05:27.268Z,72.59
2019-02-24T02:06:27.265Z,72.77
2019-02-24T02:07:27.289Z,72.77
2019-02-24T02:08:27.276Z,74.02
2019-02-24T02:09:27.245Z,74.02
2019-02-24T02:10:27.213Z,73.08
2019-02-24T02:11:27.201Z,74.24
2019-02-24T02:12:27.177Z,74.48
2019-02-24T02:13:27.163Z,74.09
2019-02-24T02:14:27.201Z,74.41
2019-02-24T02:15:27.162Z,74.41
2019-02-24T02:16:27.168Z,73.96
2019-02-24T02:17:27.139Z,72.91
2019-02-24T02:18:27.120Z,72.91
2019-02-24T02:19:27.121Z,74.37
2019-02-24T02:20:27.105Z,73.33
2019-02-24T02:21:27.088Z,72.77
2019-02-24T02:22:27.071Z,72.66
2019-02-24T02:23:27.068Z,71.93
2019-02-24T02:24:27.065Z,72.74
2019-02-24T02:25:27.099Z,72.42
2019-02-24T02:26:27.033Z,72.56
2019-02-24T02:27:27.028Z,73.08
2019-02-24T02:28:27.028Z,73.92
2019-02-24T02:29:27.020Z,73.29
2019-02-24T02:30:26.996Z,73.50
2019-02-24T02:31:27.000Z,73.71
2019-02-24T02:32:26.990Z,73.61
2019-02-24T02:33:26.979Z,72.87
2019-02-24T02:34:26.968Z,72.34
2019-02-24T02:35:26.948Z,73.19
2019-02-24T02:36:26.922Z,73.71
2019-02-24T02:37:26.927Z,73.08
2019-02-24T02:38:26.899Z,73.64
2019-02-24T02:39:26.905Z,74.37
2019-02-24T02:40:26.909Z,74.41
2019-02-24T02:41:26.875Z,74.09
2019-02-24T02:42:26.888Z,74.20
2019-02-24T02:43:26.876Z,74.58
2019-02-24T02:44:26.864Z,74.41
2019-02-24T02:45:26.837Z,74.09
2019-02-24T02:46:26.843Z,73.99
2019-02-24T02:47:26.844Z,74.30
2019-02-24T02:48:26.800Z,75.56
2019-02-24T02:49:26.816Z,75.78
2019-02-24T02:50:26.798Z,75.60
2019-02-24T02:51:26.783Z,75.70
2019-02-24T02:52:26.784Z,75.63
2019-02-24T02:53:26.764Z,75.10
2019-02-24T02:54:26.745Z,75.32
2019-02-24T02:55:26.777Z,74.48
2019-02-24T02:56:26.715Z,74.68
2019-02-24T02:57:26.716Z,75.42
2019-02-24T02:58:26.715Z,74.37
2019-02-24T02:59:26.705Z,74.79
2019-02-24T03:00:26.750Z,75.60
2019-02-24T03:01:26.703Z,75.49
2019-02-24T03:02:26.661Z,75.70
2019-02-24T03:03:26.671Z,75.78
2019-02-24T03:04:26.641Z,75.60
2019-02-24T03:05:26.682Z,75.60
2019-02-24T03:06:26.622Z,76.47
2019-02-24T03:07:26.633Z,76.47
2019-02-24T03:08:26.601Z,77.21
2019-02-24T03:09:26.598Z,76.72
2019-02-24T03:10:26.638Z,76.72
2019-02-24T03:11:26.584Z,77.14
2019-02-24T03:12:26.583Z,77.76
2019-02-24T03:13:26.556Z,77.76
2019-02-24T03:14:26.554Z,77.24
2019-02-24T03:15:26.596Z,77.62
2019-02-24T03:16:26.530Z,77.94
2019-02-24T03:17:26.543Z,77.87
2019-02-24T03:18:26.541Z,78.29
2019-02-24T03:19:26.502Z,78.61
2019-02-24T03:20:26.489Z,77.98
2019-02-24T03:21:26.476Z,78.02
2019-02-24T03:22:26.451Z,77.87
2019-02-24T03:23:26.443Z,78.50
2019-02-24T03:24:26.441Z,77.21
2019-02-24T03:25:26.468Z,75.28
2019-02-24T03:26:26.468Z,75.42
2019-02-24T03:27:26.450Z,75.60
2019-02-24T03:28:26.447Z,76.86
2019-02-24T03:29:26.376Z,75.38
2019-02-24T03:30:26.439Z,75.60
2019-02-24T03:31:26.371Z,76.29
2019-02-24T03:32:26.390Z,75.56
2019-02-24T03:33:26.355Z,75.14
2019-02-24T03:34:26.332Z,74.93
2019-02-24T03:35:26.387Z,75.35
2019-02-24T03:36:26.303Z,76.19
2019-02-24T03:37:26.304Z,75.46
2019-02-24T03:38:26.293Z,75.49
2019-02-24T03:39:26.302Z,75.70
2019-02-24T03:40:26.306Z,76.33
2019-02-24T03:41:26.268Z,75.46
2019-02-24T03:42:26.303Z,76.65
2019-02-24T03:43:26.234Z,76.75
2019-02-24T03:44:26.241Z,74.62
2019-02-24T03:45:26.239Z,72.45
2019-02-24T03:46:26.207Z,72.00
2019-02-24T03:47:26.203Z,72.94
2019-02-24T03:48:26.214Z,72.77
2019-02-24T03:49:26.190Z,73.29
2019-02-24T03:50:26.216Z,72.98
2019-02-24T03:51:26.151Z,73.33
2019-02-24T03:52:26.197Z,73.88
2019-02-24T03:53:26.132Z,74.30
2019-02-24T03:54:26.158Z,75.28
2019-02-24T03:55:26.152Z,75.32
2019-02-24T03:56:26.139Z,77.21
2019-02-24T03:57:26.102Z,77.35
2019-02-24T03:58:26.075Z,78.54
2019-02-24T03:59:26.103Z,79.59
2019-02-24T04:00:26.126Z,79.31
2019-02-24T04:01:26.067Z,79.94
2019-02-24T04:02:26.072Z,80.36
2019-02-24T04:03:26.072Z,81.41
2019-02-24T04:04:26.042Z,80.22
2019-02-24T04:05:26.086Z,79.38
2019-02-24T04:06:26.073Z,79.06
2019-02-24T04:07:26.006Z,80.68
2019-02-24T04:08:25.994Z,80.99
2019-02-24T04:09:25.993Z,80.99
2019-02-24T04:10:26.004Z,81.35
2019-02-24T04:11:25.977Z,81.98
2019-02-24T04:12:25.931Z,82.19
2019-02-24T04:13:25.929Z,82.86
2019-02-24T04:14:25.938Z,82.50
2019-02-24T04:15:25.918Z,82.82
2019-02-24T04:16:25.951Z,82.54
2019-02-24T04:17:25.909Z,82.86
2019-02-24T04:18:25.882Z,83.56
2019-02-24T04:19:25.878Z,83.10
2019-02-24T04:20:25.859Z,82.99
2019-02-24T04:21:25.864Z,83.20
2019-02-24T04:22:25.844Z,82.26
2019-02-24T04:23:25.843Z,82.36
2019-02-24T04:24:25.824Z,82.46
2019-02-24T04:25:25.837Z,82.57
2019-02-24T04:26:25.873Z,82.71
2019-02-24T04:27:25.790Z,82.71
2019-02-24T04:28:25.788Z,83.91
2019-02-24T04:29:25.798Z,84.23
2019-02-24T04:30:25.775Z,83.76
2019-02-24T04:31:25.781Z,83.87
2019-02-24T04:32:25.750Z,84.82
2019-02-24T04:33:25.772Z,83.76
2019-02-24T04:34:25.704Z,83.98
2019-02-24T04:35:25.725Z,84.75
2019-02-24T04:36:25.696Z,84.75
2019-02-24T04:37:25.673Z,84.44
2019-02-24T04:38:25.676Z,84.54
2019-02-24T04:39:25.693Z,85.21
2019-02-24T04:40:25.674Z,85.95
2019-02-24T04:41:25.649Z,85.95
2019-02-24T04:42:25.622Z,85.99
2019-02-24T04:43:25.623Z,85.85
2019-02-24T04:44:25.608Z,87.21
2019-02-24T04:45:25.609Z,86.69
2019-02-24T04:46:25.628Z,86.83
2019-02-24T04:47:25.595Z,86.72
2019-02-24T04:48:25.608Z,86.20
2019-02-24T04:49:25.582Z,86.41
2019-02-24T04:50:25.559Z,86.69
2019-02-24T04:51:25.554Z,85.95
2019-02-24T04:52:25.543Z,85.21
2019-02-24T04:53:25.551Z,85.11
2019-02-24T04:54:25.560Z,85.21
2019-02-24T04:55:25.534Z,85.11
2019-02-24T04:56:25.822Z,85.31
2019-02-24T04:57:25.498Z,84.69
2019-02-24T04:58:25.490Z,84.79
2019-02-24T04:59:34.604Z,84.79
2019-02-24T05:00:26.448Z,85.07
2019-02-24T05:01:25.477Z,84.54
2019-02-24T05:02:25.466Z,84.16
2019-02-24T05:03:25.476Z,84.58
2019-02-24T05:04:25.413Z,83.91
2019-02-24T05:05:25.385Z,83.63
2019-02-24T05:06:25.424Z,83.63
2019-02-24T05:07:25.420Z,84.69
2019-02-24T05:08:25.408Z,84.47
2019-02-24T05:09:25.348Z,84.27
2019-02-24T05:10:25.335Z,85.25
2019-02-24T05:11:25.365Z,85.57
2019-02-24T05:12:25.356Z,85.57
2019-02-24T05:13:25.329Z,85.88
2019-02-24T05:14:25.384Z,85.82
2019-02-24T05:15:25.333Z,86.83
2019-02-24T05:16:25.294Z,86.77
2019-02-24T05:17:25.335Z,85.99
2019-02-24T05:18:25.288Z,85.99
2019-02-24T05:19:25.294Z,86.72
2019-02-24T05:20:25.250Z,85.95
2019-02-24T05:21:25.309Z,85.31
2019-02-24T05:22:25.267Z,84.37
2019-02-24T05:23:25.230Z,85.36
2019-02-24T05:24:25.220Z,85.04
2019-02-24T05:25:25.185Z,85.67
2019-02-24T05:26:25.185Z,86.72
2019-02-24T05:27:25.200Z,85.67
2019-02-24T05:28:25.151Z,86.72
2019-02-24T05:29:25.143Z,86.83
2019-02-24T05:30:25.163Z,85.88
2019-02-24T05:31:25.140Z,86.20
2019-02-24T05:32:25.131Z,85.78
2019-02-24T05:33:25.125Z,85.67
2019-02-24T05:34:25.126Z,86.10
2019-02-24T05:35:25.108Z,85.99
2019-02-24T05:36:25.095Z,85.99
2019-02-24T05:37:25.115Z,85.88
2019-02-24T05:38:25.067Z,86.10
2019-02-24T05:39:25.064Z,86.94
2019-02-24T05:40:25.040Z,86.98
2019-02-24T05:41:25.031Z,86.87
2019-02-24T05:42:25.025Z,86.98
2019-02-24T05:43:25.031Z,87.12
2019-02-24T05:44:25.012Z,86.98
2019-02-24T05:45:24.990Z,86.10
2019-02-24T05:46:24.994Z,86.10
2019-02-24T05:47:24.975Z,85.92
2019-02-24T05:48:24.947Z,86.34
2019-02-24T05:49:24.986Z,87.08
2019-02-24T05:50:24.935Z,86.87
2019-02-24T05:51:24.933Z,86.98
2019-02-24T05:52:24.963Z,86.77
2019-02-24T05:53:24.896Z,86.62
2019-02-24T05:54:24.902Z,86.03
2019-02-24T05:55:24.888Z,86.24
2019-02-24T05:56:24.897Z,86.30
2019-02-24T05:57:24.926Z,86.72
2019-02-24T05:58:24.888Z,87.04
2019-02-24T05:59:24.856Z,86.94
2019-02-24T06:00:24.875Z,86.30
2019-02-24T06:01:24.839Z,85.36
2019-02-24T06:02:24.868Z,85.14
2019-02-24T06:03:24.861Z,85.25
2019-02-24T06:04:24.842Z,85.25
2019-02-24T06:05:24.811Z,85.74
2019-02-24T06:06:24.773Z,87.81
2019-02-24T06:07:24.789Z,89.14
2019-02-24T06:08:24.804Z,89.03
2019-02-24T06:09:24.781Z,88.15
2019-02-24T06:10:24.724Z,87.37
2019-02-24T06:11:24.742Z,86.70
2019-02-24T06:12:24.724Z,84.49
2019-02-24T06:13:24.751Z,83.65
2019-02-24T06:14:24.717Z,83.13
2019-02-24T06:15:24.731Z,82.29
2019-02-24T06:16:24.679Z,81.87
2019-02-24T06:17:24.678Z,81.97
2019-02-24T06:18:24.676Z,81.87
2019-02-24T06:19:24.667Z,82.07
2019-02-24T06:20:24.740Z,81.97
2019-02-24T06:21:24.636Z,82.04
2019-02-24T06:22:24.632Z,82.50
2019-02-24T06:23:24.682Z,82.18
2019-02-24T06:24:24.577Z,82.39
2019-02-24T06:25:24.663Z,82.39
2019-02-24T06:26:24.622Z,82.07
2019-02-24T06:27:24.586Z,82.39
2019-02-24T06:28:24.613Z,82.32
2019-02-24T06:29:24.528Z,82.64
2019-02-24T06:30:24.512Z,83.48
2019-02-24T06:31:24.550Z,83.69
2019-02-24T06:32:24.572Z,83.44
2019-02-24T06:33:24.508Z,83.02
2019-02-24T06:34:24.507Z,82.81
2019-02-24T06:35:24.462Z,82.98
2019-02-24T06:36:24.459Z,83.13
2019-02-24T06:37:24.491Z,82.39
2019-02-24T06:38:24.739Z,82.39
2019-02-24T06:39:24.477Z,81.45
2019-02-24T06:40:24.424Z,80.82
2019-02-24T06:41:24.448Z,80.50
2019-02-24T06:42:24.438Z,80.40
2019-02-24T06:43:24.413Z,80.08
2019-02-24T06:44:24.434Z,80.29
2019-02-24T06:45:24.363Z,80.40
2019-02-24T06:46:24.357Z,79.73
2019-02-24T06:47:24.349Z,78.96
2019-02-24T06:48:24.344Z,77.98
2019-02-24T06:49:24.348Z,77.62
2019-02-24T06:50:24.315Z,76.65
2019-02-24T06:51:24.339Z,75.56
2019-02-24T06:52:24.351Z,74.58
2019-02-24T06:53:25.425Z,74.27
2019-02-24T06:54:24.336Z,73.09
2019-02-24T06:55:24.258Z,72.25
2019-02-24T06:56:24.295Z,72.11
2019-02-24T06:57:24.241Z,70.83
2019-02-24T06:58:24.291Z,70.30
2019-02-24T06:59:24.238Z,69.88
2019-02-24T07:00:24.274Z,69.54
2019-02-24T07:01:24.221Z,68.91
2019-02-24T07:02:25.305Z,68.67
2019-02-24T07:03:24.211Z,68.25
2019-02-24T07:04:24.250Z,68.25
2019-02-24T07:05:24.158Z,68.57
2019-02-24T07:06:24.149Z,70.03
2019-02-24T07:07:24.162Z,68.15
2019-02-24T07:08:24.172Z,67.91
2019-02-24T07:09:24.138Z,67.88
2019-02-24T07:10:24.241Z,66.28
2019-02-24T07:11:24.118Z,66.01
2019-02-24T07:12:24.118Z,66.32
2019-02-24T07:13:24.085Z,64.52
2019-02-24T07:14:24.084Z,64.39
2019-02-24T07:15:24.059Z,65.64
2019-02-24T07:16:24.201Z,66.33
2019-02-24T07:17:24.050Z,66.65
2019-02-24T07:18:24.071Z,66.30
2019-02-24T07:19:24.063Z,66.30
2019-02-24T07:20:24.038Z,66.20
2019-02-24T07:21:24.047Z,66.51
2019-02-24T07:22:24.005Z,66.54
2019-02-24T07:23:23.973Z,66.83
2019-02-24T07:24:24.012Z,66.62
2019-02-24T07:25:23.978Z,66.72
2019-02-24T07:26:23.997Z,65.37
2019-02-24T07:27:23.942Z,64.72
2019-02-24T07:28:23.939Z,63.43
2019-02-24T07:29:23.938Z,62.45
2019-02-24T07:30:24.018Z,60.86
2019-02-24T07:31:23.962Z,59.97
2019-02-24T07:32:23.933Z,59.42
2019-02-24T07:33:23.881Z,57.84
2019-02-24T07:34:23.898Z,55.74
2019-02-24T07:35:23.886Z,55.51
2019-02-24T07:36:23.860Z,54.37
2019-02-24T07:37:23.872Z,54.76
2019-02-24T07:38:23.901Z,54.11
2019-02-24T07:39:23.929Z,53.23
2019-02-24T07:40:23.807Z,52.10
2019-02-24T07:41:23.800Z,53.11
2019-02-24T07:42:23.815Z,51.66
2019-02-24T07:43:23.783Z,51.15
2019-02-24T07:44:23.810Z,52.08
2019-02-24T07:45:23.773Z,51.74
2019-02-24T07:46:23.748Z,51.70
2019-02-24T07:47:23.736Z,51.67
2019-02-24T07:48:23.784Z,51.13
2019-02-24T07:49:23.701Z,50.38
2019-02-24T07:50:23.741Z,47.89
2019-02-24T07:51:23.712Z,48.10
2019-02-24T07:52:23.754Z,47.69
2019-02-24T07:53:23.662Z,46.97
2019-02-24T07:54:23.705Z,46.97
2019-02-24T07:55:23.679Z,46.24
2019-02-24T07:56:23.631Z,45.44
2019-02-24T07:57:23.656Z,46.19
2019-02-24T07:58:23.625Z,46.95
2019-02-24T07:59:23.639Z,49.27
2019-02-24T08:00:31.726Z,48.02
2019-02-24T08:01:24.593Z,47.19
2019-02-24T08:02:23.592Z,46.53
2019-02-24T08:03:23.574Z,44.78
2019-02-24T08:04:23.562Z,44.57
2019-02-24T08:05:23.560Z,44.41
2019-02-24T08:06:23.525Z,44.24
2019-02-24T08:07:23.524Z,45.46
2019-02-24T08:08:23.554Z,47.06
2019-02-24T08:09:23.504Z,46.30
2019-02-24T08:10:23.547Z,44.62
2019-02-24T08:11:23.477Z,44.39
2019-02-24T08:12:23.482Z,43.87
2019-02-24T08:13:23.485Z,43.63
2019-02-24T08:14:23.441Z,44.35
2019-02-24T08:15:23.487Z,41.99
2019-02-24T08:16:23.437Z,42.38
2019-02-24T08:17:23.430Z,40.77
2019-02-24T08:18:23.406Z,41.75
2019-02-24T08:19:23.424Z,44.18
2019-02-24T08:20:23.393Z,44.08
2019-02-24T08:21:23.408Z,45.25
2019-02-24T08:22:23.376Z,43.85
2019-02-24T08:23:23.343Z,46.34
2019-02-24T08:24:23.365Z,47.38
2019-02-24T08:25:23.338Z,46.73
2019-02-24T08:26:23.325Z,46.72
2019-02-24T08:27:23.322Z,44.78
2019-02-24T08:28:23.292Z,45.56
2019-02-24T08:29:23.301Z,46.91
2019-02-24T08:30:23.308Z,47.09
2019-02-24T08:31:23.300Z,47.50
2019-02-24T08:32:23.302Z,47.79
2019-02-24T08:33:23.248Z,46.41
2019-02-24T08:34:23.229Z,43.85
2019-02-24T08:35:23.248Z,44.96
2019-02-24T08:36:23.249Z,45.23
2019-02-24T08:37:23.202Z,44.51
2019-02-24T08:38:23.229Z,44.23
2019-02-24T08:39:23.258Z,45.97
2019-02-24T08:40:23.176Z,45.64
2019-02-24T08:41:23.171Z,46.83
2019-02-24T08:42:23.165Z,44.80
2019-02-24T08:43:23.172Z,44.08
2019-02-24T08:44:23.147Z,44.92
2019-02-24T08:45:23.110Z,45.34
2019-02-24T08:46:23.300Z,44.06
2019-02-24T08:47:23.408Z,43.40
2019-02-24T08:48:23.101Z,42.09
2019-02-24T08:49:23.133Z,44.98
2019-02-24T08:50:23.091Z,43.61
2019-02-24T08:51:23.461Z,40.41
2019-02-24T08:52:23.120Z,41.85
2019-02-24T08:53:23.059Z,42.52
2019-02-24T08:54:23.050Z,44.14
2019-02-24T08:55:23.000Z,42.50
2019-02-24T08:56:23.022Z,42.38
2019-02-24T08:57:22.989Z,43.13
2019-02-24T08:58:23.007Z,44.45
2019-02-24T08:59:22.977Z,43.44
2019-02-24T09:00:22.974Z,42.42
2019-02-24T09:01:22.975Z,41.70
2019-02-24T09:02:22.960Z,42.48
2019-02-24T09:03:22.922Z,42.34
2019-02-24T09:04:22.913Z,39.98
2019-02-24T09:05:22.897Z,40.70
2019-02-24T09:06:22.894Z,40.73
2019-02-24T09:07:22.885Z,41.02
2019-02-24T09:08:22.879Z,41.05
2019-02-24T09:09:22.878Z,41.52
2019-02-24T09:10:22.852Z,40.72
2019-02-24T09:11:22.874Z,42.44
2019-02-24T09:12:22.829Z,42.36
2019-02-24T09:13:22.810Z,42.36
2019-02-24T09:14:22.838Z,41.41
2019-02-24T09:15:22.874Z,42.83
2019-02-24T09:16:22.796Z,41.39
2019-02-24T09:17:22.817Z,41.99
2019-02-24T09:18:22.774Z,39.53
2019-02-24T09:19:22.794Z,42.57
2019-02-24T09:20:22.773Z,40.76
2019-02-24T09:21:22.753Z,40.66
2019-02-24T09:22:22.741Z,40.37
2019-02-24T09:23:22.729Z,42.15
2019-02-24T09:24:22.695Z,43.53
2019-02-24T09:25:22.687Z,42.36
2019-02-24T09:26:22.715Z,40.17
2019-02-24T09:27:22.685Z,40.85
2019-02-24T09:28:22.675Z,37.87
2019-02-24T09:29:22.698Z,38.65
2019-02-24T09:30:22.705Z,37.87
2019-02-24T09:31:22.653Z,38.18
2019-02-24T09:32:22.606Z,40.94
2019-02-24T09:33:22.610Z,38.67
2019-02-24T09:34:22.588Z,38.35
2019-02-24T09:35:22.612Z,37.28
2019-02-24T09:36:22.586Z,37.72
2019-02-24T09:37:22.571Z,38.23
2019-02-24T09:38:22.611Z,38.91
2019-02-24T09:39:22.560Z,36.36
2019-02-24T09:40:22.518Z,37.72
2019-02-24T09:41:22.558Z,37.33
2019-02-24T09:42:22.504Z,38.98
2019-02-24T09:43:22.537Z,38.06
2019-02-24T09:44:22.490Z,38.35
2019-02-24T09:45:22.496Z,37.59
2019-02-24T09:46:22.503Z,37.99
2019-02-24T09:47:22.479Z,36.66
2019-02-24T09:48:22.435Z,37.16
2019-02-24T09:49:22.430Z,37.75
2019-02-24T09:50:22.453Z,38.33
2019-02-24T09:51:22.443Z,36.21
2019-02-24T09:52:22.468Z,36.25
2019-02-24T09:53:22.383Z,36.15
2019-02-24T09:54:22.369Z,36.46
2019-02-24T09:55:22.376Z,36.15
2019-02-24T09:56:22.387Z,39.61
2019-02-24T09:57:22.343Z,37.36
2019-02-24T09:58:22.344Z,36.12
2019-02-24T09:59:22.343Z,38.65
2019-02-24T10:00:22.336Z,36.21
2019-02-24T10:01:22.348Z,35.10
2019-02-24T10:02:22.280Z,36.96
2019-02-24T10:03:22.275Z,36.05
2019-02-24T10:04:22.339Z,35.71
2019-02-24T10:05:22.275Z,36.61
2019-02-24T10:06:22.305Z,37.19
2019-02-24T10:07:22.272Z,35.63
2019-02-24T10:08:22.221Z,34.38
2019-02-24T10:09:22.234Z,33.83
2019-02-24T10:10:22.192Z,32.95
2019-02-24T10:11:22.208Z,33.10
2019-02-24T10:12:22.258Z,33.83
2019-02-24T10:13:22.163Z,32.71
2019-02-24T10:14:22.160Z,35.05
2019-02-24T10:15:22.146Z,33.54
2019-02-24T10:16:22.328Z,33.62
2019-02-24T10:17:22.143Z,35.66
2019-02-24T10:18:22.143Z,33.90
2019-02-24T10:19:22.130Z,33.17
2019-02-24T10:20:22.138Z,31.73
2019-02-24T10:21:22.150Z,33.76
2019-02-24T10:22:22.100Z,31.46
2019-02-24T10:23:22.107Z,31.57
2019-02-24T10:24:22.042Z,33.07
2019-02-24T10:25:22.031Z,33.88
2019-02-24T10:26:22.057Z,33.80
2019-02-24T10:27:22.031Z,34.35
2019-02-24T10:28:22.022Z,35.88
2019-02-24T10:29:21.987Z,37.63
2019-02-24T10:30:21.999Z,36.72
2019-02-24T10:31:22.011Z,35.80
2019-02-24T10:32:21.954Z,38.34
2019-02-24T10:33:21.947Z,34.55
2019-02-24T10:34:21.938Z,37.84
2019-02-24T10:35:21.921Z,36.19
2019-02-24T10:36:21.922Z,36.15
2019-02-24T10:37:21.964Z,35.27
2019-02-24T10:38:21.890Z,36.75
2019-02-24T10:39:29.496Z,33.15
2019-02-24T10:40:22.873Z,32.43
2019-02-24T10:41:21.927Z,33.92
2019-02-24T10:42:21.849Z,31.52
2019-02-24T10:43:21.878Z,34.27
2019-02-24T10:44:21.824Z,31.82
2019-02-24T10:45:21.812Z,32.08
2019-02-24T10:46:21.833Z,37.01
2019-02-24T10:47:21.806Z,33.77
2019-02-24T10:48:21.784Z,34.11
2019-02-24T10:49:21.824Z,33.70
2019-02-24T10:50:21.764Z,32.87
2019-02-24T10:51:21.756Z,32.96
2019-02-24T10:52:21.760Z,31.92
2019-02-24T10:53:21.745Z,31.22
2019-02-24T10:54:21.728Z,32.84
2019-02-24T10:55:21.774Z,33.77
2019-02-24T10:56:21.703Z,33.11
2019-02-24T10:57:21.704Z,33.40
2019-02-24T10:58:21.688Z,34.27
2019-02-24T10:59:21.666Z,31.18
2019-02-24T11:00:21.665Z,31.35
2019-02-24T11:01:29.233Z,30.96
2019-02-24T11:02:22.644Z,32.70
2019-02-24T11:03:21.622Z,30.00
2019-02-24T11:04:21.610Z,31.57
2019-02-24T11:05:21.602Z,32.11
2019-02-24T11:06:21.591Z,33.44
2019-02-24T11:07:21.678Z,32.31
2019-02-24T11:08:21.592Z,33.62
2019-02-24T11:09:21.556Z,32.59
2019-02-24T11:10:21.594Z,34.51
2019-02-24T11:11:21.582Z,34.27
2019-02-24T11:12:21.547Z,33.15
2019-02-24T11:13:21.512Z,31.67
2019-02-24T11:14:21.580Z,35.75
2019-02-24T11:15:21.496Z,32.69
2019-02-24T11:16:21.500Z,33.18
2019-02-24T11:17:21.480Z,33.71
2019-02-24T11:18:21.460Z,34.95
2019-02-24T11:19:21.516Z,31.92
2019-02-24T11:20:21.437Z,30.70
2019-02-24T11:21:21.430Z,30.02
2019-02-24T11:22:21.443Z,31.81
2019-02-24T11:23:21.433Z,33.76
2019-02-24T11:24:21.426Z,34.54
2019-02-24T11:25:21.455Z,31.79
2019-02-24T11:26:21.375Z,33.10
2019-02-24T11:27:21.403Z,31.76
2019-02-24T11:28:21.394Z,30.74
2019-02-24T11:29:21.338Z,34.05
2019-02-24T11:30:21.340Z,30.48
2019-02-24T11:31:21.326Z,31.41
2019-02-24T11:32:21.412Z,33.54
2019-02-24T11:33:21.297Z,31.44
2019-02-24T11:34:21.327Z,33.56
2019-02-24T11:35:21.291Z,31.73
2019-02-24T11:36:21.280Z,31.83
2019-02-24T11:37:21.281Z,32.63
2019-02-24T11:38:21.291Z,30.57
2019-02-24T11:39:21.254Z,31.31
2019-02-24T11:40:21.223Z,31.60
2019-02-24T11:41:21.219Z,35.26
2019-02-24T11:42:21.276Z,32.99
2019-02-24T11:43:21.243Z,31.74
2019-02-24T11:44:21.252Z,31.34
2019-02-24T11:45:21.177Z,30.83
2019-02-24T11:46:21.160Z,28.81
2019-02-24T11:47:21.178Z,28.70
2019-02-24T11:48:21.147Z,28.14
2019-02-24T11:49:21.131Z,31.37
2019-02-24T11:50:21.170Z,30.15
2019-02-24T11:51:21.146Z,33.51
2019-02-24T11:52:21.108Z,30.94
2019-02-24T11:53:21.085Z,28.83
2019-02-24T11:54:21.091Z,30.16
2019-02-24T11:55:21.065Z,29.67
2019-02-24T11:56:21.060Z,31.01
2019-02-24T11:57:21.132Z,30.29
2019-02-24T11:58:21.094Z,32.24
2019-02-24T11:59:21.076Z,31.24
2019-02-24T12:00:21.008Z,32.54
2019-02-24T12:01:20.999Z,31.43
2019-02-24T12:02:20.810Z,35.60
2019-02-24T12:03:20.536Z,31.41
2019-02-24T12:04:20.412Z,31.12
2019-02-24T12:05:20.404Z,31.73
2019-02-24T12:06:20.392Z,32.71
2019-02-24T12:07:20.390Z,33.73
2019-02-24T12:08:20.371Z,31.21
2019-02-24T12:09:20.359Z,33.04
2019-02-24T12:10:20.351Z,32.32
2019-02-24T12:11:20.336Z,31.71
2019-02-24T12:12:20.336Z,32.73
2019-02-24T12:13:20.315Z,32.73
2019-02-24T12:14:20.305Z,31.31
2019-02-24T12:15:20.294Z,34.31
2019-02-24T12:16:20.285Z,34.11
2019-02-24T12:17:20.289Z,31.37
2019-02-24T12:18:20.271Z,29.58
2019-02-24T12:19:20.254Z,31.54
2019-02-24T12:20:20.240Z,35.17
2019-02-24T12:21:20.229Z,33.53
2019-02-24T12:22:20.233Z,31.26
2019-02-24T12:23:20.209Z,31.08
2019-02-24T12:24:20.220Z,30.25
2019-02-24T12:25:20.187Z,32.71
2019-02-24T12:26:20.179Z,31.29
2019-02-24T12:27:20.181Z,32.51
2019-02-24T12:28:20.155Z,31.28
2019-02-24T12:29:20.145Z,32.71
2019-02-24T12:30:20.134Z,31.08
2019-02-24T12:31:20.123Z,33.80
2019-02-24T12:32:20.128Z,34.12
2019-02-24T12:33:20.117Z,33.73
2019-02-24T12:34:20.105Z,34.34
2019-02-24T12:35:20.083Z,32.83
2019-02-24T12:36:20.071Z,34.16
2019-02-24T12:37:20.072Z,34.04
2019-02-24T12:38:20.050Z,33.63
2019-02-24T12:39:20.041Z,32.24
2019-02-24T12:40:20.029Z,35.61
2019-02-24T12:41:20.018Z,33.76
2019-02-24T12:42:20.024Z,34.12
2019-02-24T12:43:19.996Z,32.50
2019-02-24T12:44:19.987Z,35.12
2019-02-24T12:45:19.974Z,33.26
2019-02-24T12:46:19.963Z,30.62
2019-02-24T12:47:19.958Z,32.64
2019-02-24T12:48:20.291Z,32.03
2019-02-24T12:49:19.933Z,31.35
2019-02-24T12:50:19.919Z,31.89
2019-02-24T12:51:19.911Z,37.05
2019-02-24T12:52:20.719Z,34.16